DLH4NE EDDF-EBBR
Flight info
| Callsign | DLH4NE |
|---|---|
| Flight time | N/A |
| Altitude | 22000 |
| Route | SOBRA2L/18 SOBRA Y180 BITBU Y181 GOPAS N852 LNO |
| Aircraft | A320/M-SDE3FGHIRWY/LB1 |
Departure
| Time | N/A |
|---|---|
| Airport | Frankfurt Main Airport (EDDF) |
Arrival
| Time | 2026-05-01 11:28 |
|---|---|
| Airport | Brussels Airport (EBBR) |
| Time | Latitude | Longitude | Altitude | Speed | Heading |
|---|---|---|---|---|---|
| 2026-05-01 11:07 | 50.95432 | 5.14434 | 22275 ft | 269 kts | 64° |
| 2026-05-01 11:08 | 50.96084 | 5.17204 | 21921 ft | 273 kts | 85° |
| 2026-05-01 11:08 | 50.95968 | 5.20199 | 21485 ft | 271 kts | 108° |
| 2026-05-01 11:08 | 50.94067 | 5.25142 | 20955 ft | 263 kts | 130° |
| 2026-05-01 11:09 | 50.92898 | 5.27373 | 20635 ft | 263 kts | 131° |
| 2026-05-01 11:09 | 50.91720 | 5.29553 | 20241 ft | 259 kts | 131° |
| 2026-05-01 11:09 | 50.90546 | 5.31715 | 19754 ft | 257 kts | 131° |
| 2026-05-01 11:10 | 50.87838 | 5.35186 | 18845 ft | 251 kts | 160° |
| 2026-05-01 11:10 | 50.86131 | 5.35656 | 18389 ft | 250 kts | 180° |
| 2026-05-01 11:10 | 50.84427 | 5.35132 | 17889 ft | 252 kts | 200° |
| 2026-05-01 11:10 | 50.82939 | 5.33666 | 17413 ft | 255 kts | 220° |
| 2026-05-01 11:11 | 50.81881 | 5.31455 | 16948 ft | 260 kts | 241° |
| 2026-05-01 11:11 | 50.81396 | 5.28657 | 16487 ft | 265 kts | 263° |
| 2026-05-01 11:11 | 50.81608 | 5.25798 | 16046 ft | 269 kts | 286° |
| 2026-05-01 11:11 | 50.82510 | 5.23158 | 15582 ft | 271 kts | 304° |
| 2026-05-01 11:12 | 50.83654 | 5.20837 | 15123 ft | 271 kts | 308° |
| 2026-05-01 11:12 | 50.84868 | 5.18547 | 14700 ft | 271 kts | 309° |
| 2026-05-01 11:12 | 50.86092 | 5.16292 | 14295 ft | 269 kts | 309° |
| 2026-05-01 11:12 | 50.87246 | 5.13988 | 13808 ft | 265 kts | 296° |
| 2026-05-01 11:13 | 50.87758 | 5.11278 | 13356 ft | 253 kts | 266° |
| 2026-05-01 11:13 | 50.87703 | 5.08508 | 12836 ft | 253 kts | 266° |
| 2026-05-01 11:13 | 50.87796 | 5.05727 | 12365 ft | 253 kts | 270° |
| 2026-05-01 11:13 | 50.87967 | 5.02959 | 11990 ft | 255 kts | 271° |
| 2026-05-01 11:14 | 50.88160 | 4.99890 | 11763 ft | 304 kts | 271° |
| 2026-05-01 11:14 | 50.88364 | 4.96339 | 11512 ft | 340 kts | 271° |
| 2026-05-01 11:14 | 50.88567 | 4.92525 | 11275 ft | 351 kts | 271° |
| 2026-05-01 11:14 | 50.88764 | 4.88669 | 11003 ft | 351 kts | 271° |
| 2026-05-01 11:15 | 50.88948 | 4.84821 | 10750 ft | 350 kts | 271° |
| 2026-05-01 11:15 | 50.89120 | 4.80987 | 10512 ft | 349 kts | 270° |
| 2026-05-01 11:15 | 50.89281 | 4.77164 | 10275 ft | 346 kts | 270° |
| 2026-05-01 11:15 | 50.89435 | 4.73449 | 10124 ft | 330 kts | 270° |
| 2026-05-01 11:16 | 50.89583 | 4.69909 | 9995 ft | 315 kts | 270° |
| 2026-05-01 11:16 | 50.89726 | 4.66512 | 9859 ft | 302 kts | 270° |
| 2026-05-01 11:16 | 50.89859 | 4.63271 | 9729 ft | 296 kts | 270° |
| 2026-05-01 11:16 | 50.89989 | 4.60033 | 9599 ft | 294 kts | 270° |
| 2026-05-01 11:17 | 50.90118 | 4.56803 | 9469 ft | 293 kts | 270° |
| 2026-05-01 11:17 | 50.90250 | 4.53583 | 9344 ft | 293 kts | 271° |
| 2026-05-01 11:17 | 50.90464 | 4.50366 | 9051 ft | 293 kts | 274° |
| 2026-05-01 11:17 | 50.90748 | 4.47176 | 8719 ft | 291 kts | 275° |
| 2026-05-01 11:18 | 50.91055 | 4.44018 | 8391 ft | 289 kts | 276° |
| 2026-05-01 11:18 | 50.91363 | 4.40882 | 8068 ft | 288 kts | 275° |
| 2026-05-01 11:18 | 50.91660 | 4.37756 | 7746 ft | 286 kts | 275° |
| 2026-05-01 11:18 | 50.91945 | 4.34644 | 7425 ft | 284 kts | 275° |
| 2026-05-01 11:19 | 50.92223 | 4.31555 | 7116 ft | 282 kts | 275° |
| 2026-05-01 11:19 | 50.92494 | 4.28496 | 6804 ft | 280 kts | 275° |
| 2026-05-01 11:19 | 50.92761 | 4.25449 | 6482 ft | 279 kts | 275° |
| 2026-05-01 11:19 | 50.93024 | 4.22413 | 6138 ft | 277 kts | 275° |
| 2026-05-01 11:20 | 50.93280 | 4.19407 | 5818 ft | 271 kts | 272° |
| 2026-05-01 11:20 | 50.93165 | 4.16485 | 5490 ft | 261 kts | 253° |
| 2026-05-01 11:20 | 50.92505 | 4.13880 | 5170 ft | 250 kts | 236° |
| 2026-05-01 11:20 | 50.91424 | 4.11789 | 4836 ft | 242 kts | 219° |
| 2026-05-01 11:21 | 50.90143 | 4.10155 | 4580 ft | 235 kts | 216° |
| 2026-05-01 11:21 | 50.88829 | 4.08834 | 4579 ft | 214 kts | 199° |
| 2026-05-01 11:21 | 50.87428 | 4.08413 | 4565 ft | 198 kts | 178° |
| 2026-05-01 11:21 | 50.86111 | 4.08792 | 4442 ft | 193 kts | 159° |
| 2026-05-01 11:22 | 50.84861 | 4.09687 | 4094 ft | 200 kts | 155° |
| 2026-05-01 11:22 | 50.83578 | 4.10616 | 3717 ft | 206 kts | 156° |
| 2026-05-01 11:22 | 50.82255 | 4.11571 | 3336 ft | 210 kts | 155° |
| 2026-05-01 11:22 | 50.81171 | 4.13079 | 3043 ft | 213 kts | 117° |
| 2026-05-01 11:23 | 50.81047 | 4.15383 | 2997 ft | 218 kts | 80° |
| 2026-05-01 11:23 | 50.81563 | 4.17670 | 3003 ft | 222 kts | 70° |
| 2026-05-01 11:23 | 50.82219 | 4.19840 | 3007 ft | 213 kts | 67° |
| 2026-05-01 11:23 | 50.82873 | 4.21892 | 3013 ft | 206 kts | 66° |
| 2026-05-01 11:24 | 50.83499 | 4.23887 | 3016 ft | 197 kts | 66° |
| 2026-05-01 11:24 | 50.84085 | 4.25790 | 2946 ft | 185 kts | 69° |
| 2026-05-01 11:24 | 50.85128 | 4.29237 | 2416 ft | 164 kts | 68° |
| 2026-05-01 11:25 | 50.85596 | 4.30805 | 2202 ft | 152 kts | 70° |
| 2026-05-01 11:25 | 50.86438 | 4.33649 | 1788 ft | 137 kts | 67° |
| 2026-05-01 11:25 | 50.86829 | 4.34993 | 1610 ft | 135 kts | 68° |
| 2026-05-01 11:26 | 50.87227 | 4.36344 | 1434 ft | 136 kts | 68° |
| 2026-05-01 11:26 | 50.88023 | 4.39055 | 1070 ft | 136 kts | 70° |
| 2026-05-01 11:26 | 50.88423 | 4.40442 | 902 ft | 140 kts | 70° |
| 2026-05-01 11:27 | 50.88813 | 4.41805 | 718 ft | 132 kts | 68° |
| 2026-05-01 11:27 | 50.89194 | 4.43134 | 585 ft | 131 kts | 67° |
| 2026-05-01 11:27 | 50.89565 | 4.44420 | 389 ft | 130 kts | 69° |
| 2026-05-01 11:27 | 50.89937 | 4.45715 | 222 ft | 129 kts | 70° |
| 2026-05-01 11:28 | 50.90300 | 4.46982 | 145 ft | 116 kts | 65° |
| 2026-05-01 11:28 | 50.90585 | 4.47967 | 143 ft | 85 kts | 65° |
| 2026-05-01 11:28 | 50.90794 | 4.48689 | 135 ft | 47 kts | 65° |
| 2026-05-01 11:29 | 50.90976 | 4.49374 | 134 ft | 21 kts | 77° |
| 2026-05-01 11:29 | 50.90981 | 4.49600 | 128 ft | 16 kts | 96° |
| 2026-05-01 11:29 | 50.90848 | 4.49636 | 128 ft | 14 kts | 196° |
| 2026-05-01 11:30 | 50.90745 | 4.49592 | 132 ft | 17 kts | 194° |
| 2026-05-01 11:30 | 50.90620 | 4.49542 | 133 ft | 20 kts | 194° |
| 2026-05-01 11:30 | 50.90479 | 4.49485 | 133 ft | 15 kts | 194° |
| 2026-05-01 11:30 | 50.90420 | 4.49383 | 134 ft | 9 kts | 245° |
| 2026-05-01 11:31 | 50.90398 | 4.49306 | 136 ft | 7 kts | 245° |
| 2026-05-01 11:31 | 50.90389 | 4.49231 | 136 ft | 9 kts | 285° |
| 2026-05-01 11:31 | 50.90421 | 4.49146 | 135 ft | 7 kts | 303° |
| 2026-05-01 11:31 | 50.90440 | 4.49103 | 134 ft | 2 kts | 307° |
| 2026-05-01 11:32 | 50.90441 | 4.49101 | 134 ft | 0 kts | 307° |